createdAt,value
2023-04-12T00:03:12.032Z,4.38
2023-04-12T00:08:15.813Z,3.70
2023-04-12T00:13:17.590Z,3.47
2023-04-12T00:18:19.036Z,3.40
2023-04-12T00:23:20.840Z,3.67
2023-04-12T00:28:22.207Z,3.80
2023-04-12T00:33:23.675Z,4.95
2023-04-12T00:38:25.123Z,2.80
2023-04-12T00:43:27.781Z,7.10
2023-04-12T00:48:30.785Z,9.63
2023-04-12T00:53:33.117Z,4.35
2023-04-12T00:58:34.531Z,5.78
2023-04-12T01:03:42.905Z,3.78
2023-04-12T01:08:57.749Z,6.57
2023-04-12T01:14:07.204Z,7.68
2023-04-12T01:19:47.465Z,6.22
2023-04-12T01:25:04.451Z,2.80
2023-04-12T01:30:08.198Z,5.03
2023-04-12T01:35:10.814Z,4.82
2023-04-12T01:40:13.174Z,10.30
2023-04-12T01:45:14.568Z,6.63
2023-04-12T01:50:25.640Z,8.15
2023-04-12T01:55:30.572Z,5.15
2023-04-12T02:00:35.547Z,2.80
2023-04-12T02:05:37.005Z,5.10
2023-04-12T02:10:40.254Z,7.00
2023-04-12T02:15:41.702Z,6.82
2023-04-12T02:20:43.824Z,4.38
2023-04-12T02:25:46.562Z,6.60
2023-04-12T02:30:48.282Z,5.10
2023-04-12T02:35:49.652Z,4.43
2023-04-12T02:40:52.078Z,4.50
2023-04-12T02:45:53.506Z,5.18
2023-04-12T02:50:54.961Z,7.07
2023-04-12T02:55:57.286Z,10.02
2023-04-12T03:01:00.186Z,2.40
2023-04-12T03:06:01.874Z,6.03
2023-04-12T03:11:03.253Z,4.10
2023-04-12T03:16:22.848Z,7.18
2023-04-12T03:21:24.263Z,4.65
2023-04-12T03:26:26.550Z,4.90
2023-04-12T03:31:28.163Z,6.53
2023-04-12T03:36:30.193Z,8.40
2023-04-12T03:41:31.588Z,7.72
2023-04-12T03:46:33.251Z,7.53
2023-04-12T03:51:34.678Z,3.63
2023-04-12T03:56:36.086Z,5.97
2023-04-12T04:01:38.740Z,6.75
2023-04-12T04:06:40.728Z,9.00
2023-04-12T04:11:42.141Z,8.55
2023-04-12T04:16:43.652Z,5.43
2023-04-12T04:21:45.093Z,5.13
2023-04-12T04:26:46.536Z,5.55
2023-04-12T04:31:48.483Z,9.45
2023-04-12T04:36:49.931Z,6.72
2023-04-12T04:41:54.753Z,3.00
2023-04-12T04:46:59.101Z,6.63
2023-04-12T04:52:00.482Z,8.25
2023-04-12T04:57:02.219Z,5.47
2023-04-12T05:02:03.780Z,5.07
2023-04-12T05:07:05.664Z,6.97
2023-04-12T05:12:07.233Z,5.40
2023-04-12T05:17:08.584Z,7.35
2023-04-12T05:22:10.067Z,3.90
2023-04-12T05:27:11.755Z,3.70
2023-04-12T05:32:13.326Z,4.35
2023-04-12T05:37:15.335Z,6.50
2023-04-12T05:42:16.690Z,4.15
2023-04-12T05:47:18.070Z,5.15
2023-04-12T05:52:19.408Z,5.78
2023-04-12T05:57:20.911Z,5.93
2023-04-12T06:02:25.828Z,4.90
2023-04-12T06:07:27.763Z,7.47
2023-04-12T06:12:29.104Z,6.10
2023-04-12T06:17:30.539Z,4.57
2023-04-12T06:22:32.545Z,3.10
2023-04-12T06:27:33.934Z,2.88
2023-04-12T06:32:35.737Z,6.25
2023-04-12T06:37:37.122Z,5.90
2023-04-12T06:42:39.192Z,4.90
2023-04-12T06:47:40.662Z,3.72
2023-04-12T06:52:42.046Z,7.97
2023-04-12T06:57:44.649Z,4.47
2023-04-12T07:02:46.543Z,3.38
2023-04-12T07:07:48.045Z,4.28
2023-04-12T07:12:49.654Z,3.10
2023-04-12T07:17:51.821Z,3.38
2023-04-12T07:22:53.465Z,5.47
2023-04-12T07:27:55.220Z,3.33
2023-04-12T07:33:05.240Z,3.35
2023-04-12T07:38:16.574Z,3.80
2023-04-12T07:43:18.544Z,5.30
2023-04-12T07:48:20.286Z,5.78
2023-04-12T07:53:27.563Z,1.73
2023-04-12T07:58:28.947Z,1.13
2023-04-12T08:03:30.623Z,3.78
2023-04-12T08:08:32.235Z,3.83
2023-04-12T08:13:35.442Z,2.78
2023-04-12T08:18:36.937Z,3.35
2023-04-12T08:23:38.293Z,3.08
2023-04-12T08:28:39.962Z,1.52
2023-04-12T08:33:41.416Z,4.10
2023-04-12T08:38:46.171Z,3.78
2023-04-12T08:43:48.688Z,2.90
2023-04-12T08:48:54.776Z,4.30
2023-04-12T08:53:56.654Z,1.67
2023-04-12T08:58:59.592Z,2.22
2023-04-12T09:04:06.919Z,2.38
2023-04-12T09:14:25.773Z,3.25
2023-04-12T09:19:35.635Z,1.57
2023-04-12T09:24:49.987Z,1.92
2023-04-12T09:29:52.004Z,2.50
2023-04-12T09:34:58.122Z,3.05
2023-04-12T09:40:08.011Z,5.10
2023-04-12T09:45:22.037Z,1.77
2023-04-12T09:50:28.942Z,2.15
2023-04-12T09:55:32.122Z,2.80
2023-04-12T10:00:34.739Z,3.35
2023-04-12T10:05:36.704Z,5.32
2023-04-12T10:10:38.574Z,3.20
2023-04-12T10:15:40.352Z,3.15
2023-04-12T10:20:41.973Z,3.50
2023-04-12T10:25:46.814Z,4.93
2023-04-12T10:30:50.151Z,5.63
2023-04-12T10:36:04.109Z,3.05
2023-04-12T10:41:17.340Z,3.60
2023-04-12T10:46:40.802Z,6.97
2023-04-12T10:52:00.876Z,4.68
2023-04-12T10:57:04.002Z,6.00
2023-04-12T11:02:09.403Z,7.80
2023-04-12T11:07:11.992Z,4.25
2023-04-12T11:12:15.242Z,9.52
2023-04-12T11:17:16.739Z,8.90
2023-04-12T11:22:20.578Z,8.00
2023-04-12T11:27:23.760Z,6.85
2023-04-12T11:32:28.613Z,9.63
2023-04-12T11:37:31.185Z,6.93
2023-04-12T11:42:32.967Z,6.35
2023-04-12T11:47:34.561Z,6.30
2023-04-12T11:52:36.058Z,6.50
2023-04-12T11:57:38.792Z,7.85
2023-04-12T12:02:46.501Z,9.68
2023-04-12T12:07:52.501Z,10.80
2023-04-12T12:12:57.598Z,8.60
2023-04-12T12:18:01.966Z,8.18
2023-04-12T12:23:03.514Z,5.05
2023-04-12T12:28:05.828Z,5.57
2023-04-12T12:33:07.486Z,4.45
2023-04-12T12:38:10.216Z,6.10
2023-04-12T12:43:18.924Z,7.43
2023-04-12T12:48:21.435Z,5.32
2023-04-12T12:53:24.373Z,7.68
2023-04-12T12:58:26.187Z,8.18
2023-04-12T13:03:27.873Z,6.20
2023-04-12T13:08:34.306Z,7.13
2023-04-12T13:13:36.297Z,10.07
2023-04-12T13:18:38.071Z,8.43
2023-04-12T13:23:39.422Z,3.40
2023-04-12T13:28:40.948Z,5.20
2023-04-12T13:33:42.283Z,5.55
2023-04-12T13:38:43.787Z,8.07
2023-04-12T13:43:45.359Z,4.90
2023-04-12T13:48:46.710Z,7.30
2023-04-12T13:53:48.126Z,7.75
2023-04-12T13:58:49.583Z,4.78
2023-04-12T14:03:53.373Z,6.30
2023-04-12T14:08:54.808Z,2.72
2023-04-12T14:13:56.262Z,3.83
2023-04-12T14:18:57.954Z,3.75
2023-04-12T14:23:59.499Z,2.47
2023-04-12T14:29:01.041Z,1.63
2023-04-12T14:34:03.392Z,2.20
2023-04-12T14:39:05.866Z,2.47
2023-04-12T14:44:08.419Z,3.65
2023-04-12T14:49:09.856Z,5.53
2023-04-12T14:54:11.219Z,3.05
2023-04-12T14:59:13.357Z,5.20
2023-04-12T15:04:14.778Z,1.40
2023-04-12T15:09:17.535Z,1.65
2023-04-12T15:14:20.328Z,2.90
2023-04-12T15:19:24.762Z,1.85
2023-04-12T15:24:26.972Z,5.00
2023-04-12T15:29:28.501Z,1.13
2023-04-12T15:34:29.976Z,3.00
2023-04-12T15:39:31.800Z,1.15
2023-04-12T15:44:33.145Z,2.28
2023-04-12T15:49:35.856Z,0.57
2023-04-12T15:54:43.732Z,0.82
2023-04-12T15:59:45.395Z,1.85
2023-04-12T16:04:47.218Z,1.98
2023-04-12T16:09:48.728Z,0.88
2023-04-12T16:14:51.915Z,1.13
2023-04-12T16:19:54.362Z,0.43
2023-04-12T16:24:56.380Z,0.52
2023-04-12T16:29:57.823Z,0.17
2023-04-12T17:06:42.596Z,1.70
2023-04-12T17:11:44.034Z,0.20
2023-04-12T17:16:46.097Z,1.02
2023-04-12T17:21:48.018Z,0.93
2023-04-12T17:26:49.541Z,0.35
2023-04-12T17:31:54.177Z,1.45
2023-04-12T17:36:56.532Z,1.25
2023-04-12T17:41:57.885Z,0.93
2023-04-12T17:46:59.326Z,1.13
2023-04-12T17:52:01.392Z,0.20
2023-04-12T17:57:03.597Z,0.30
2023-04-12T18:02:05.128Z,0.50
2023-04-12T18:07:09.562Z,0.50
2023-04-12T18:12:11.741Z,0.75
2023-04-12T18:17:13.109Z,1.15
2023-04-12T18:22:14.487Z,2.05
2023-04-12T18:27:16.062Z,0.80
2023-04-12T18:32:17.727Z,2.67
2023-04-12T18:37:19.763Z,0.88
2023-04-12T18:42:21.157Z,0.47
2023-04-12T18:47:22.606Z,0.95
2023-04-12T18:52:23.990Z,0.90
2023-04-12T18:57:25.497Z,0.50
2023-04-12T19:02:28.326Z,0.30
2023-04-12T19:07:29.871Z,0.32
2023-04-12T19:12:32.076Z,0.00
2023-04-12T19:17:37.050Z,0.20
2023-04-12T19:22:38.473Z,0.00
2023-04-12T19:27:39.943Z,0.00
2023-04-12T19:32:42.458Z,0.35
2023-04-12T19:37:44.643Z,0.10
2023-04-12T19:42:46.625Z,0.10
2023-04-12T19:47:48.058Z,0.63
2023-04-12T19:52:49.522Z,1.85
2023-04-12T19:57:51.189Z,0.20
2023-04-12T20:02:54.028Z,0.55
2023-04-12T20:07:55.903Z,0.30
2023-04-12T20:12:57.588Z,0.63
2023-04-12T20:17:59.042Z,0.30
2023-04-12T20:23:00.547Z,0.68
2023-04-12T20:28:02.718Z,0.60
2023-04-12T20:33:04.275Z,0.40
2023-04-12T20:38:07.081Z,1.67
2023-04-12T20:43:08.613Z,0.77
2023-04-12T20:48:11.145Z,2.88
2023-04-12T20:53:17.544Z,0.40
2023-04-12T20:58:19.378Z,0.45
2023-04-12T21:03:20.979Z,0.60
2023-04-12T21:08:23.446Z,0.35
2023-04-12T21:13:26.521Z,1.65
2023-04-12T21:18:28.172Z,2.13
2023-04-12T21:23:30.138Z,1.15
2023-04-12T21:28:31.606Z,1.42
2023-04-12T21:33:33.810Z,0.90
2023-04-12T21:38:35.179Z,1.10
2023-04-12T21:43:40.396Z,0.35
2023-04-12T21:48:42.824Z,1.25
2023-04-12T21:53:44.509Z,0.63
2023-04-12T21:58:45.875Z,0.90
2023-04-12T22:03:47.394Z,1.90
2023-04-12T22:08:49.604Z,1.13
2023-04-12T22:13:51.061Z,1.60
2023-04-12T22:18:52.725Z,0.68
2023-04-12T22:23:55.098Z,1.40
2023-04-12T22:28:56.500Z,2.72
2023-04-12T22:33:58.120Z,0.52
2023-04-12T22:38:59.613Z,1.00
2023-04-12T22:44:03.929Z,0.40
2023-04-12T22:49:05.585Z,0.35
2023-04-12T22:54:09.010Z,2.55
2023-04-12T22:59:14.169Z,1.17
2023-04-12T23:04:16.857Z,0.43
2023-04-12T23:09:19.587Z,1.63
2023-04-12T23:14:20.952Z,0.20
2023-04-12T23:19:23.152Z,1.40
2023-04-12T23:24:25.005Z,1.10
2023-04-12T23:29:26.775Z,1.30
2023-04-12T23:34:30.680Z,0.30
2023-04-12T23:39:32.023Z,1.00
2023-04-12T23:44:33.369Z,1.58
2023-04-12T23:49:34.695Z,2.85
2023-04-12T23:54:36.055Z,1.63
2023-04-12T23:59:37.684Z,4.25
